createdAt,value
2022-11-09T00:00:11.067Z,9.50
2022-11-09T00:02:42.921Z,14.85
2022-11-09T00:05:11.092Z,16.08
2022-11-09T00:07:38.075Z,7.80
2022-11-09T00:10:05.461Z,15.07
2022-11-09T00:12:32.372Z,9.05
2022-11-09T00:14:59.220Z,9.60
2022-11-09T00:17:26.148Z,11.77
2022-11-09T00:19:53.002Z,9.48
2022-11-09T00:22:19.858Z,8.90
2022-11-09T00:24:46.780Z,11.10
2022-11-09T00:27:17.482Z,8.63
2022-11-09T00:29:44.656Z,9.07
2022-11-09T00:32:11.642Z,12.80
2022-11-09T00:34:38.607Z,10.85
2022-11-09T00:37:06.195Z,11.45
2022-11-09T00:39:33.051Z,9.63
2022-11-09T00:41:59.909Z,11.48
2022-11-09T00:44:29.945Z,15.52
2022-11-09T00:46:56.826Z,10.73
2022-11-09T00:49:23.755Z,7.53
2022-11-09T00:51:50.809Z,7.38
2022-11-09T00:54:17.875Z,10.88
2022-11-09T00:56:44.770Z,8.75
2022-11-09T00:59:12.024Z,13.35
2022-11-09T01:01:39.498Z,9.00
2022-11-09T01:04:06.459Z,10.52
2022-11-09T01:06:34.150Z,10.77
2022-11-09T01:09:02.027Z,9.55
2022-11-09T01:11:28.974Z,9.85
2022-11-09T01:13:56.078Z,6.20
2022-11-09T01:16:24.653Z,6.18
2022-11-09T01:18:58.521Z,7.60
2022-11-09T01:21:26.855Z,14.15
2022-11-09T01:23:53.842Z,8.70
2022-11-09T01:26:20.862Z,10.32
2022-11-09T01:28:50.427Z,8.10
2022-11-09T01:31:19.701Z,19.23
2022-11-09T01:33:47.428Z,8.25
2022-11-09T01:36:25.203Z,7.28
2022-11-09T01:38:52.540Z,8.15
2022-11-09T01:41:24.486Z,9.32
2022-11-09T01:44:14.836Z,12.25
2022-11-09T01:46:54.059Z,8.65
2022-11-09T01:49:26.951Z,8.73
2022-11-09T01:52:02.924Z,8.52
2022-11-09T01:54:38.160Z,12.07
2022-11-09T01:57:10.565Z,7.85
2022-11-09T01:59:43.381Z,7.60
2022-11-09T02:02:10.894Z,8.07
2022-11-09T02:04:55.896Z,15.45
2022-11-09T02:07:23.612Z,9.70
2022-11-09T02:10:00.932Z,13.98
2022-11-09T02:12:29.515Z,10.10
2022-11-09T02:14:57.747Z,7.63
2022-11-09T02:17:26.775Z,17.50
2022-11-09T02:19:53.888Z,14.07
2022-11-09T02:22:20.907Z,8.77
2022-11-09T02:24:50.780Z,8.00
2022-11-09T02:27:20.569Z,8.27
2022-11-09T02:29:49.080Z,11.05
2022-11-09T02:32:20.583Z,8.68
2022-11-09T02:34:48.012Z,10.85
2022-11-09T02:37:28.958Z,8.32
2022-11-09T02:39:59.029Z,10.18
2022-11-09T02:42:26.334Z,7.72
2022-11-09T02:44:58.627Z,10.95
2022-11-09T02:47:26.439Z,8.48
2022-11-09T02:49:54.097Z,7.97
2022-11-09T02:52:20.938Z,7.72
2022-11-09T02:54:47.920Z,8.68
2022-11-09T02:57:15.102Z,11.18
2022-11-09T02:59:42.901Z,8.50
2022-11-09T03:02:10.853Z,11.43
2022-11-09T03:04:39.562Z,7.90
2022-11-09T03:07:07.883Z,10.15
2022-11-09T03:09:34.925Z,8.85
2022-11-09T03:12:21.780Z,11.60
2022-11-09T03:14:49.421Z,14.85
2022-11-09T03:17:17.655Z,9.05
2022-11-09T03:19:45.120Z,8.40
2022-11-09T03:22:13.024Z,11.60
2022-11-09T03:24:39.979Z,13.80
2022-11-09T03:27:06.958Z,12.80
2022-11-09T03:29:33.826Z,10.55
2022-11-09T03:32:01.880Z,12.85
2022-11-09T03:34:28.968Z,13.18
2022-11-09T03:36:56.016Z,15.60
2022-11-09T03:39:22.937Z,10.95
2022-11-09T03:41:49.979Z,11.38
2022-11-09T03:44:16.935Z,10.07
2022-11-09T03:46:44.150Z,9.02
2022-11-09T03:49:11.050Z,13.60
2022-11-09T03:51:38.117Z,19.25
2022-11-09T03:54:05.019Z,10.95
2022-11-09T03:56:31.887Z,11.20
2022-11-09T03:58:58.779Z,9.60
2022-11-09T04:01:25.736Z,12.00
2022-11-09T04:03:52.587Z,8.52
2022-11-09T04:06:19.425Z,9.63
2022-11-09T04:08:51.141Z,8.00
2022-11-09T04:11:19.615Z,10.52
2022-11-09T04:13:47.580Z,10.82
2022-11-09T04:16:14.495Z,16.65
2022-11-09T04:18:41.420Z,13.88
2022-11-09T04:21:08.887Z,13.70
2022-11-09T04:23:35.850Z,14.63
2022-11-09T04:26:02.699Z,12.13
2022-11-09T04:28:29.591Z,9.57
2022-11-09T04:31:01.097Z,10.23
2022-11-09T04:33:28.376Z,11.07
2022-11-09T04:35:55.304Z,16.63
2022-11-09T04:38:22.242Z,8.25
2022-11-09T04:40:49.215Z,11.13
2022-11-09T04:43:16.244Z,8.43
2022-11-09T04:45:43.172Z,12.35
2022-11-09T04:48:11.224Z,17.83
2022-11-09T04:50:38.334Z,10.45
2022-11-09T04:53:10.920Z,12.00
2022-11-09T04:55:38.523Z,12.20
2022-11-09T04:58:05.821Z,8.52
2022-11-09T05:00:33.221Z,14.88
2022-11-09T05:03:05.192Z,15.77
2022-11-09T05:05:36.189Z,15.23
2022-11-09T05:08:03.984Z,9.80
2022-11-09T05:10:31.473Z,14.40
2022-11-09T05:13:06.279Z,13.93
2022-11-09T05:15:33.823Z,8.60
2022-11-09T05:18:01.952Z,12.45
2022-11-09T05:20:29.834Z,11.20
2022-11-09T05:23:17.694Z,13.98
2022-11-09T05:25:44.802Z,10.02
2022-11-09T05:28:12.008Z,10.23
2022-11-09T05:30:39.325Z,11.60
2022-11-09T05:33:06.442Z,12.23
2022-11-09T05:35:34.396Z,11.45
2022-11-09T05:38:01.331Z,11.70
2022-11-09T05:40:28.498Z,9.52
2022-11-09T05:42:56.753Z,12.05
2022-11-09T05:45:41.873Z,8.65
2022-11-09T05:48:11.228Z,8.93
2022-11-09T05:50:38.829Z,8.52
2022-11-09T05:53:24.151Z,9.15
2022-11-09T05:55:51.213Z,8.20
2022-11-09T05:58:18.192Z,10.35
2022-11-09T06:00:45.071Z,8.25
2022-11-09T06:03:12.424Z,8.32
2022-11-09T06:05:41.005Z,17.77
2022-11-09T06:08:10.576Z,9.25
2022-11-09T06:10:37.678Z,10.15
2022-11-09T06:13:04.607Z,21.35
2022-11-09T06:15:31.552Z,9.23
2022-11-09T06:17:59.611Z,12.27
2022-11-09T06:20:28.320Z,10.43
2022-11-09T06:23:02.519Z,13.20
2022-11-09T06:25:31.968Z,11.20
2022-11-09T06:27:59.176Z,16.00
2022-11-09T06:30:26.152Z,9.27
2022-11-09T06:32:59.039Z,11.43
2022-11-09T06:35:26.002Z,14.05
2022-11-09T06:38:00.872Z,12.77
2022-11-09T06:40:28.225Z,7.05
2022-11-09T06:42:59.467Z,11.60
2022-11-09T06:45:27.860Z,10.50
2022-11-09T06:47:58.562Z,12.80
2022-11-09T06:50:27.870Z,7.50
2022-11-09T06:53:03.127Z,11.07
2022-11-09T06:55:31.633Z,9.30
2022-11-09T06:57:58.704Z,12.98
2022-11-09T07:00:27.325Z,11.38
2022-11-09T07:02:54.303Z,16.77
2022-11-09T07:05:21.379Z,10.48
2022-11-09T07:07:48.262Z,13.20
2022-11-09T07:10:15.488Z,15.93
2022-11-09T07:12:42.561Z,13.95
2022-11-09T07:15:11.503Z,11.50
2022-11-09T07:17:39.886Z,12.13
2022-11-09T07:20:08.612Z,13.25
2022-11-09T07:22:39.582Z,13.27
2022-11-09T07:25:07.993Z,16.05
2022-11-09T07:27:35.508Z,16.20
2022-11-09T07:30:02.621Z,16.15
2022-11-09T07:33:01.867Z,11.23
2022-11-09T07:35:16.521Z,15.38
2022-11-09T07:37:43.388Z,21.70
2022-11-09T07:40:10.775Z,13.55
2022-11-09T07:42:37.657Z,14.45
2022-11-09T07:45:06.428Z,15.38
2022-11-09T07:47:33.342Z,17.42
2022-11-09T07:50:00.208Z,19.38
2022-11-09T07:52:27.173Z,16.40
2022-11-09T07:54:54.088Z,15.43
2022-11-09T07:57:21.200Z,11.45
2022-11-09T07:59:48.041Z,15.32
2022-11-09T08:02:14.928Z,22.55
2022-11-09T08:04:41.812Z,17.73
2022-11-09T08:07:08.742Z,14.80
2022-11-09T08:09:35.651Z,21.65
2022-11-09T08:12:02.584Z,19.10
2022-11-09T08:14:29.424Z,14.90
2022-11-09T08:16:56.759Z,17.55
2022-11-09T08:19:23.592Z,20.42
2022-11-09T08:21:50.540Z,25.90
2022-11-09T08:24:17.446Z,15.38
2022-11-09T08:26:44.304Z,20.35
2022-11-09T08:29:13.632Z,19.17
2022-11-09T08:31:40.603Z,16.83
2022-11-09T08:34:12.818Z,22.75
2022-11-09T08:36:40.053Z,24.55
2022-11-09T08:39:06.915Z,20.15
2022-11-09T08:41:34.061Z,21.08
2022-11-09T08:44:00.920Z,19.30
2022-11-09T08:46:27.864Z,15.25
2022-11-09T08:48:54.780Z,18.90
2022-11-09T08:51:21.653Z,16.98
2022-11-09T08:53:48.498Z,16.27
2022-11-09T08:56:19.160Z,19.50
2022-11-09T08:58:46.352Z,16.90
2022-11-09T09:01:16.972Z,18.75
2022-11-09T09:03:44.309Z,23.38
2022-11-09T09:06:11.230Z,23.45
2022-11-09T09:08:38.077Z,21.23
2022-11-09T09:11:06.251Z,21.55
2022-11-09T09:13:35.794Z,19.70
2022-11-09T09:16:10.596Z,18.70
2022-11-09T09:18:37.742Z,14.68
2022-11-09T09:21:11.730Z,17.15
2022-11-09T09:23:38.725Z,21.25
2022-11-09T09:26:06.065Z,20.67
2022-11-09T09:28:33.571Z,21.92
2022-11-09T09:31:01.760Z,14.48
2022-11-09T09:33:29.396Z,22.77
2022-11-09T09:35:57.892Z,28.00
2022-11-09T09:38:26.391Z,27.77
2022-11-09T09:41:00.337Z,20.30
2022-11-09T09:43:59.161Z,20.55
2022-11-09T10:17:12.082Z,33.97
2022-11-09T10:19:50.881Z,32.03
2022-11-09T10:22:49.953Z,35.30
2022-11-09T10:25:37.971Z,30.10
2022-11-09T10:28:14.352Z,21.85
2022-11-09T10:30:42.212Z,31.45
2022-11-09T10:33:09.052Z,29.98
2022-11-09T10:35:42.605Z,28.50
2022-11-09T10:38:15.989Z,40.65
2022-11-09T10:40:50.203Z,26.40
2022-11-09T10:43:35.913Z,25.23
2022-11-09T10:46:21.770Z,25.50
2022-11-09T10:49:21.169Z,26.90
2022-11-09T10:52:27.188Z,28.55
2022-11-09T10:55:24.184Z,22.13
2022-11-09T10:58:30.814Z,22.85
2022-11-09T11:01:20.062Z,25.08
2022-11-09T11:04:23.628Z,23.73
2022-11-09T11:07:21.463Z,29.65
2022-11-09T11:10:25.383Z,27.08
2022-11-09T11:13:10.464Z,24.88
2022-11-09T11:15:55.923Z,24.65
2022-11-09T11:18:46.695Z,22.30
2022-11-09T11:21:32.465Z,20.17
2022-11-09T11:24:21.175Z,16.63
2022-11-09T11:27:14.277Z,17.45
2022-11-09T11:30:10.686Z,15.85
2022-11-09T11:32:56.415Z,17.88
2022-11-09T11:35:53.829Z,13.77
2022-11-09T11:39:11.018Z,13.48
2022-11-09T11:42:05.558Z,13.52
2022-11-09T11:48:39.375Z,13.93
2022-11-09T11:51:49.245Z,12.43
2022-11-09T11:54:37.493Z,21.38
2022-11-09T11:57:47.583Z,15.63
2022-11-09T12:00:50.205Z,16.13
2022-11-09T12:03:50.892Z,23.00
2022-11-09T12:06:44.140Z,12.60
2022-11-09T12:09:47.676Z,11.32
2022-11-09T12:12:33.035Z,14.23
2022-11-09T12:15:30.518Z,11.30
2022-11-09T12:18:42.070Z,15.10
2022-11-09T12:21:57.606Z,17.17
2022-11-09T12:25:16.579Z,13.15
2022-11-09T12:28:23.806Z,15.77
2022-11-09T12:31:21.483Z,11.70
2022-11-09T12:36:58.978Z,16.08
2022-11-09T12:39:55.543Z,18.58
2022-11-09T12:42:49.482Z,13.75
2022-11-09T12:45:38.590Z,10.63
2022-11-09T12:48:31.060Z,11.93
2022-11-09T12:51:17.187Z,14.60
2022-11-09T12:54:11.507Z,11.00
2022-11-09T12:57:01.325Z,13.93
2022-11-09T12:59:50.419Z,15.95
2022-11-09T13:02:55.497Z,15.23
2022-11-09T13:05:43.183Z,14.00
2022-11-09T13:08:31.106Z,13.68
2022-11-09T13:11:39.958Z,13.18
2022-11-09T13:14:31.745Z,10.25
2022-11-09T13:17:29.127Z,10.45
2022-11-09T13:24:14.152Z,9.00
2022-11-09T13:26:47.235Z,17.58
2022-11-09T13:29:41.804Z,9.57
2022-11-09T13:32:30.028Z,9.05
2022-11-09T13:35:40.244Z,13.02
2022-11-09T13:38:28.768Z,11.63
2022-11-09T13:41:29.701Z,12.75
2022-11-09T13:44:19.261Z,12.32
2022-11-09T13:47:05.280Z,11.13
2022-11-09T13:49:52.229Z,15.38
2022-11-09T13:52:42.630Z,7.50
2022-11-09T13:55:40.943Z,10.40
2022-11-09T13:58:34.959Z,11.73
2022-11-09T14:01:59.513Z,9.68
2022-11-09T14:04:45.226Z,8.95
2022-11-09T14:07:38.457Z,15.38
2022-11-09T14:10:46.835Z,10.48
2022-11-09T14:13:51.026Z,9.75
2022-11-09T14:17:11.024Z,8.90
2022-11-09T14:20:20.284Z,8.90
2022-11-09T14:23:19.352Z,10.80
2022-11-09T14:26:18.743Z,13.20
2022-11-09T14:29:24.443Z,11.10
2022-11-09T14:32:37.137Z,11.52
2022-11-09T14:35:36.595Z,39.78
2022-11-09T14:38:36.767Z,48.33
2022-11-09T14:41:27.985Z,15.38
2022-11-09T14:44:23.053Z,8.15
2022-11-09T14:47:20.316Z,7.50
2022-11-09T14:50:14.618Z,9.10
2022-11-09T14:53:01.417Z,7.88
2022-11-09T14:55:52.089Z,15.70
2022-11-09T14:58:41.892Z,8.88
2022-11-09T15:01:28.360Z,7.07
2022-11-09T15:04:22.915Z,8.52
2022-11-09T15:07:18.922Z,12.20
2022-11-09T15:10:08.265Z,13.88
2022-11-09T15:12:57.912Z,8.15
2022-11-09T15:15:51.111Z,8.93
2022-11-09T15:18:42.428Z,13.07
2022-11-09T15:21:27.731Z,12.82
2022-11-09T15:24:17.818Z,6.95
2022-11-09T15:27:04.233Z,8.13
2022-11-09T15:29:49.880Z,6.45
2022-11-09T15:32:39.664Z,9.93
2022-11-09T15:35:25.550Z,5.97
2022-11-09T15:38:33.997Z,3.88
2022-11-09T15:41:22.950Z,5.10
2022-11-09T15:44:10.435Z,3.72
2022-11-09T15:46:55.851Z,9.00
2022-11-09T15:49:41.498Z,4.13
2022-11-09T15:52:27.941Z,4.70
2022-11-09T15:55:22.228Z,6.75
2022-11-09T15:58:07.562Z,8.35
2022-11-09T16:00:52.984Z,7.07
2022-11-09T16:03:38.696Z,5.00
2022-11-09T16:06:24.352Z,6.78
2022-11-09T16:09:10.147Z,5.97
2022-11-09T16:11:55.399Z,3.97
2022-11-09T16:14:40.999Z,3.13
2022-11-09T16:17:26.320Z,4.85
2022-11-09T16:20:12.170Z,8.13
2022-11-09T16:22:57.677Z,7.78
2022-11-09T16:25:44.813Z,4.90
2022-11-09T16:28:30.259Z,4.10
2022-11-09T16:31:16.035Z,7.35
2022-11-09T16:34:01.285Z,4.72
2022-11-09T16:36:52.335Z,6.07
2022-11-09T16:39:40.891Z,2.17
2022-11-09T16:42:26.544Z,4.75
2022-11-09T16:45:15.337Z,3.53
2022-11-09T16:48:03.302Z,4.57
2022-11-09T16:50:49.028Z,7.10
2022-11-09T16:53:34.342Z,2.30
2022-11-09T16:56:19.914Z,4.22
2022-11-09T16:59:04.927Z,3.90
2022-11-09T17:01:57.443Z,5.10
2022-11-09T17:04:43.028Z,2.88
2022-11-09T17:07:28.861Z,4.28
2022-11-09T17:10:14.760Z,2.47
2022-11-09T17:13:01.015Z,5.23
2022-11-09T17:15:48.749Z,5.15
2022-11-09T17:18:35.148Z,4.15
2022-11-09T17:21:21.938Z,3.20
2022-11-09T17:24:07.620Z,4.93
2022-11-09T17:26:53.297Z,4.55
2022-11-09T17:29:39.931Z,3.70
2022-11-09T17:32:28.259Z,3.38
2022-11-09T17:35:13.922Z,2.83
2022-11-09T17:37:59.373Z,4.00
2022-11-09T17:40:44.433Z,5.18
2022-11-09T17:43:31.702Z,4.07
2022-11-09T17:46:20.364Z,2.45
2022-11-09T17:49:09.955Z,7.80
2022-11-09T17:51:56.400Z,2.78
2022-11-09T17:54:42.022Z,3.28
2022-11-09T17:57:27.746Z,3.33
2022-11-09T18:00:13.908Z,3.08
2022-11-09T18:02:59.238Z,2.75
2022-11-09T18:05:45.507Z,2.38
2022-11-09T18:08:31.234Z,4.17
2022-11-09T18:11:18.116Z,2.35
2022-11-09T18:14:03.783Z,3.20
2022-11-09T18:16:49.334Z,2.17
2022-11-09T18:19:34.823Z,5.05
2022-11-09T18:22:20.408Z,3.60
2022-11-09T18:25:06.112Z,1.92
2022-11-09T18:27:52.717Z,3.00
2022-11-09T18:30:41.784Z,2.20
2022-11-09T18:33:28.253Z,4.00
2022-11-09T18:36:16.588Z,5.97
2022-11-09T18:39:03.317Z,3.97
2022-11-09T18:41:49.055Z,2.95
2022-11-09T18:44:34.413Z,3.05
2022-11-09T18:47:20.609Z,4.68
2022-11-09T18:50:07.210Z,5.47
2022-11-09T18:52:52.390Z,2.58
2022-11-09T18:55:37.959Z,3.05
2022-11-09T18:58:23.779Z,2.13
2022-11-09T19:01:09.237Z,3.03
2022-11-09T19:03:59.048Z,4.72
2022-11-09T19:06:45.451Z,3.13
2022-11-09T19:09:38.953Z,5.57
2022-11-09T19:12:25.191Z,4.25
2022-11-09T19:15:10.967Z,3.03
2022-11-09T19:17:57.021Z,3.65
2022-11-09T19:20:42.904Z,7.20
2022-11-09T19:23:34.100Z,5.65
2022-11-09T19:26:20.520Z,2.40
2022-11-09T19:29:07.530Z,2.65
2022-11-09T19:31:53.469Z,1.75
2022-11-09T19:34:38.991Z,4.97
2022-11-09T19:37:24.610Z,3.17
2022-11-09T19:40:10.652Z,2.95
2022-11-09T19:42:56.881Z,3.05
2022-11-09T19:45:42.949Z,4.13
2022-11-09T19:48:28.751Z,2.15
2022-11-09T19:51:15.825Z,6.20
2022-11-09T19:54:02.196Z,2.22
2022-11-09T19:56:48.061Z,2.50
2022-11-09T19:59:34.054Z,4.43
2022-11-09T20:02:19.793Z,2.90
2022-11-09T20:05:05.770Z,4.70
2022-11-09T20:07:51.038Z,3.25
2022-11-09T20:10:37.907Z,2.67
2022-11-09T20:13:24.608Z,5.38
2022-11-09T20:16:10.587Z,3.67
2022-11-09T20:18:56.874Z,3.30
2022-11-09T20:21:42.204Z,2.30
2022-11-09T20:24:27.874Z,2.60
2022-11-09T20:27:13.148Z,2.88
2022-11-09T20:29:58.457Z,2.95
2022-11-09T20:32:43.957Z,2.30
2022-11-09T20:35:29.251Z,1.77
2022-11-09T20:38:14.812Z,3.33
2022-11-09T20:41:03.380Z,2.95
2022-11-09T20:43:48.846Z,3.72
2022-11-09T20:46:36.864Z,3.17
2022-11-09T20:49:22.667Z,2.22
2022-11-09T20:52:07.880Z,4.20
2022-11-09T20:54:53.406Z,2.38
2022-11-09T20:57:39.051Z,2.83
2022-11-09T21:00:24.722Z,4.13
2022-11-09T21:03:10.082Z,5.80
2022-11-09T21:05:59.160Z,5.03
2022-11-09T21:08:46.396Z,3.67
2022-11-09T21:11:35.684Z,3.95
2022-11-09T21:14:21.207Z,4.10
2022-11-09T21:17:06.909Z,3.33
2022-11-09T21:19:52.700Z,3.60
2022-11-09T21:22:56.540Z,4.90
2022-11-09T21:26:02.585Z,6.90
2022-11-09T21:29:06.420Z,4.10
2022-11-09T21:31:52.101Z,4.00
2022-11-09T21:34:37.819Z,4.15
2022-11-09T21:37:23.457Z,5.15
2022-11-09T21:40:09.760Z,3.00
2022-11-09T21:42:56.102Z,4.97
2022-11-09T21:45:42.572Z,6.73
2022-11-09T21:48:27.990Z,4.53
2022-11-09T21:51:13.585Z,4.72
2022-11-09T21:54:00.096Z,3.85
2022-11-09T21:56:47.460Z,6.43
2022-11-09T21:59:32.588Z,6.28
2022-11-09T22:02:18.201Z,5.65
2022-11-09T22:05:03.428Z,4.63
2022-11-09T22:07:49.167Z,5.82
2022-11-09T22:10:34.349Z,6.40
2022-11-09T22:13:37.934Z,7.55
2022-11-09T22:16:25.415Z,4.30
2022-11-09T22:19:29.179Z,3.92
2022-11-09T22:22:15.189Z,8.05
2022-11-09T22:25:00.652Z,5.00
2022-11-09T22:27:46.569Z,13.77
2022-11-09T22:30:31.699Z,6.97
2022-11-09T22:33:21.760Z,6.32
2022-11-09T22:36:12.280Z,7.82
2022-11-09T22:38:57.908Z,10.98
2022-11-09T22:41:43.227Z,6.60
2022-11-09T22:44:28.810Z,6.93
2022-11-09T22:47:14.054Z,6.80
2022-11-09T22:49:59.334Z,9.55
2022-11-09T22:52:45.123Z,13.98
2022-11-09T22:59:42.184Z,7.97
2022-11-09T23:02:29.020Z,8.50
2022-11-09T23:05:14.902Z,9.57
2022-11-09T23:08:00.359Z,8.55
2022-11-09T23:10:54.664Z,8.65
2022-11-09T23:13:40.555Z,7.47
2022-11-09T23:16:26.340Z,9.88
2022-11-09T23:19:12.052Z,7.65
2022-11-09T23:21:57.539Z,6.60
2022-11-09T23:25:01.547Z,7.88
2022-11-09T23:27:51.101Z,6.30
2022-11-09T23:35:40.983Z,6.82
